createdAt,value
2017-02-23T00:00:35.529Z,0
2017-02-23T00:01:49.227Z,0
2017-02-23T00:03:02.898Z,0
2017-02-23T00:04:16.645Z,0
2017-02-23T00:05:30.337Z,0
2017-02-23T00:06:44.054Z,0
2017-02-23T00:07:57.771Z,0
2017-02-23T00:09:10.853Z,0
2017-02-23T00:10:24.516Z,0
2017-02-23T00:11:38.265Z,0
2017-02-23T00:12:51.996Z,0
2017-02-23T00:14:05.661Z,0
2017-02-23T00:15:18.172Z,0
2017-02-23T00:16:31.260Z,0
2017-02-23T00:17:44.943Z,0
2017-02-23T00:18:58.053Z,0
2017-02-23T00:20:11.768Z,0
2017-02-23T00:21:24.835Z,0
2017-02-23T00:22:38.529Z,0
2017-02-23T00:23:52.265Z,0
2017-02-23T00:25:06.015Z,0
2017-02-23T00:26:19.706Z,0
2017-02-23T00:27:33.408Z,0
2017-02-23T00:28:47.109Z,0
2017-02-23T00:30:00.799Z,0
2017-02-23T00:31:13.891Z,0
2017-02-23T00:32:27.599Z,0
2017-02-23T00:33:41.345Z,0
2017-02-23T00:34:55.072Z,0
2017-02-23T00:36:08.762Z,0
2017-02-23T00:37:21.872Z,0
2017-02-23T00:38:35.556Z,0
2017-02-23T00:39:49.257Z,0
2017-02-23T00:41:02.964Z,0
2017-02-23T00:42:16.680Z,0
2017-02-23T00:43:30.381Z,0
2017-02-23T00:44:44.093Z,0
2017-02-23T00:45:57.827Z,0
2017-02-23T00:47:10.923Z,0
2017-02-23T00:48:24.698Z,0
2017-02-23T00:49:38.422Z,0
2017-02-23T00:50:51.554Z,0
2017-02-23T00:52:05.285Z,0
2017-02-23T00:53:18.366Z,0
2017-02-23T00:54:32.105Z,0
2017-02-23T00:55:45.209Z,0
2017-02-23T00:56:58.928Z,0
2017-02-23T00:58:12.039Z,0
2017-02-23T00:59:25.122Z,0
2017-02-23T01:00:38.811Z,0
2017-02-23T01:01:52.507Z,0
2017-02-23T01:03:06.177Z,0
2017-02-23T01:04:19.865Z,0
2017-02-23T01:05:33.576Z,0
2017-02-23T01:06:47.285Z,0
2017-02-23T01:08:00.469Z,0
2017-02-23T01:09:13.709Z,0
2017-02-23T01:10:26.831Z,0
2017-02-23T01:11:40.542Z,0
2017-02-23T01:12:54.273Z,0
2017-02-23T01:14:08.028Z,0
2017-02-23T01:15:20.530Z,0
2017-02-23T01:16:34.274Z,0
2017-02-23T01:17:48.004Z,0
2017-02-23T01:19:01.112Z,0
2017-02-23T01:20:14.227Z,0
2017-02-23T01:21:27.894Z,0
2017-02-23T01:22:41.588Z,0
2017-02-23T01:23:55.352Z,0
2017-02-23T01:25:08.442Z,0
2017-02-23T01:26:22.156Z,0
2017-02-23T01:27:35.859Z,0
2017-02-23T01:28:49.610Z,0
2017-02-23T01:30:03.290Z,0
2017-02-23T01:31:16.408Z,0
2017-02-23T01:32:30.111Z,0
2017-02-23T01:33:43.824Z,0
2017-02-23T01:34:57.540Z,0
2017-02-23T01:36:11.253Z,0
2017-02-23T01:37:24.968Z,0
2017-02-23T01:38:38.680Z,0
2017-02-23T01:39:52.359Z,0
2017-02-23T01:41:06.050Z,0
2017-02-23T01:42:19.756Z,0
2017-02-23T01:43:33.453Z,0
2017-02-23T01:44:47.134Z,0
2017-02-23T01:46:00.263Z,0
2017-02-23T01:47:14.016Z,0
2017-02-23T01:48:27.103Z,0
2017-02-23T01:49:40.801Z,0
2017-02-23T01:50:54.513Z,0
2017-02-23T01:52:08.219Z,0
2017-02-23T01:53:21.933Z,0
2017-02-23T01:54:35.655Z,0
2017-02-23T01:55:49.363Z,0
2017-02-23T01:57:03.087Z,0
2017-02-23T01:58:16.179Z,0
2017-02-23T01:59:29.873Z,0
2017-02-23T02:00:43.569Z,0
2017-02-23T02:01:57.274Z,0
2017-02-23T02:03:10.385Z,0
2017-02-23T02:04:22.928Z,0
2017-02-23T02:05:36.661Z,0
2017-02-23T02:06:50.364Z,0
2017-02-23T02:08:04.054Z,0
2017-02-23T02:09:17.730Z,0
2017-02-23T02:10:31.447Z,0
2017-02-23T02:11:44.570Z,0
2017-02-23T02:12:58.269Z,0
2017-02-23T02:14:11.375Z,0
2017-02-23T02:15:25.090Z,0
2017-02-23T02:16:38.823Z,0
2017-02-23T02:17:52.531Z,0
2017-02-23T02:19:06.285Z,0
2017-02-23T02:20:19.991Z,0
2017-02-23T02:21:33.663Z,0
2017-02-23T02:22:47.391Z,0
2017-02-23T02:24:01.072Z,0
2017-02-23T02:25:14.782Z,0
2017-02-23T02:26:28.513Z,0
2017-02-23T02:27:42.201Z,0
2017-02-23T02:28:55.288Z,0
2017-02-23T02:30:08.380Z,0
2017-02-23T02:31:21.486Z,0
2017-02-23T02:32:35.199Z,0
2017-02-23T02:33:48.954Z,0
2017-02-23T02:35:02.686Z,0
2017-02-23T02:36:15.835Z,0
2017-02-23T02:37:29.555Z,0
2017-02-23T02:38:43.276Z,0
2017-02-23T02:39:57.024Z,0
2017-02-23T02:41:10.790Z,0
2017-02-23T02:42:24.469Z,0
2017-02-23T02:43:38.147Z,0
2017-02-23T02:44:51.857Z,0
2017-02-23T02:46:05.563Z,0
2017-02-23T02:47:19.251Z,0
2017-02-23T02:48:32.955Z,0
2017-02-23T02:49:46.645Z,0
2017-02-23T02:51:00.338Z,0
2017-02-23T02:52:12.820Z,0
2017-02-23T02:53:26.565Z,0
2017-02-23T02:54:40.302Z,0
2017-02-23T02:55:54.016Z,0
2017-02-23T02:57:07.740Z,0
2017-02-23T02:58:21.417Z,0
2017-02-23T02:59:35.101Z,0
2017-02-23T03:00:48.784Z,0
2017-02-23T03:02:02.472Z,0
2017-02-23T03:03:15.608Z,0
2017-02-23T03:04:29.357Z,0
2017-02-23T03:05:43.035Z,0
2017-02-23T03:06:56.115Z,0
2017-02-23T03:08:09.829Z,0
2017-02-23T03:09:22.948Z,0
2017-02-23T03:10:36.630Z,0
2017-02-23T03:11:50.315Z,0
2017-02-23T03:13:04.027Z,0
2017-02-23T03:14:17.746Z,0
2017-02-23T03:15:31.431Z,0
2017-02-23T03:16:44.598Z,0
2017-02-23T03:17:58.301Z,0
2017-02-23T03:19:12.003Z,0
2017-02-23T03:20:25.115Z,0
2017-02-23T03:21:38.782Z,0
2017-02-23T03:22:52.032Z,0
2017-02-23T03:24:05.161Z,0
2017-02-23T03:25:18.249Z,0
2017-02-23T03:26:31.404Z,0
2017-02-23T03:27:44.511Z,0
2017-02-23T03:28:58.166Z,0
2017-02-23T03:30:11.862Z,0
2017-02-23T03:31:25.578Z,0
2017-02-23T03:32:39.269Z,0
2017-02-23T03:33:52.998Z,0
2017-02-23T03:35:06.727Z,0
2017-02-23T03:36:20.434Z,0
2017-02-23T03:37:34.114Z,0
2017-02-23T03:38:47.838Z,0
2017-02-23T03:40:01.531Z,0
2017-02-23T03:41:15.224Z,0
2017-02-23T03:42:28.989Z,0
2017-02-23T03:43:42.757Z,0
2017-02-23T03:44:55.892Z,0
2017-02-23T03:46:09.608Z,0
2017-02-23T03:47:22.678Z,0
2017-02-23T03:48:36.362Z,0
2017-02-23T03:49:50.063Z,0
2017-02-23T03:51:03.722Z,0
2017-02-23T03:52:17.449Z,0
2017-02-23T03:53:31.144Z,0
2017-02-23T03:54:44.817Z,0
2017-02-23T03:55:58.518Z,0
2017-02-23T03:57:12.285Z,0
2017-02-23T03:58:24.763Z,0
2017-02-23T03:59:38.486Z,0
2017-02-23T04:00:52.194Z,0
2017-02-23T04:02:05.854Z,0
2017-02-23T04:03:18.375Z,0
2017-02-23T04:04:32.038Z,0
2017-02-23T04:05:45.118Z,0
2017-02-23T04:06:58.875Z,0
2017-02-23T04:08:12.548Z,0
2017-02-23T04:09:25.689Z,0
2017-02-23T04:10:39.374Z,0
2017-02-23T04:11:53.099Z,0
2017-02-23T04:13:06.259Z,0
2017-02-23T04:14:20.005Z,0
2017-02-23T04:15:33.739Z,0
2017-02-23T04:16:47.449Z,0
2017-02-23T04:18:01.150Z,0
2017-02-23T04:19:14.841Z,0
2017-02-23T04:20:28.561Z,0
2017-02-23T04:21:42.252Z,0
2017-02-23T04:22:55.934Z,0
2017-02-23T04:24:09.024Z,0
2017-02-23T04:25:22.143Z,0
2017-02-23T04:26:35.241Z,0
2017-02-23T04:27:48.915Z,0
2017-02-23T04:29:02.612Z,0
2017-02-23T04:30:16.441Z,0
2017-02-23T04:31:30.213Z,0
2017-02-23T04:32:43.892Z,0
2017-02-23T04:33:57.581Z,0
2017-02-23T04:35:11.276Z,0
2017-02-23T04:36:24.967Z,0
2017-02-23T04:37:38.676Z,0
2017-02-23T04:38:52.428Z,0
2017-02-23T04:40:06.112Z,0
2017-02-23T04:41:19.802Z,0
2017-02-23T04:42:33.485Z,0
2017-02-23T04:43:47.175Z,0
2017-02-23T04:45:00.860Z,0
2017-02-23T04:46:13.963Z,0
2017-02-23T04:47:26.516Z,0
2017-02-23T04:48:40.205Z,0
2017-02-23T04:49:53.889Z,0
2017-02-23T04:51:07.565Z,0
2017-02-23T04:52:20.658Z,0
2017-02-23T04:53:33.798Z,0
2017-02-23T04:54:47.481Z,0
2017-02-23T04:56:01.172Z,0
2017-02-23T04:57:14.861Z,0
2017-02-23T04:58:28.624Z,0
2017-02-23T04:59:42.324Z,0
2017-02-23T05:00:55.423Z,0
2017-02-23T05:02:08.513Z,0
2017-02-23T05:03:22.206Z,0
2017-02-23T05:04:35.880Z,0
2017-02-23T05:05:48.967Z,0
2017-02-23T05:07:02.675Z,0
2017-02-23T05:08:15.167Z,0
2017-02-23T05:09:28.859Z,0
2017-02-23T05:10:42.549Z,0
2017-02-23T05:11:56.249Z,0
2017-02-23T05:13:09.975Z,0
2017-02-23T05:14:23.648Z,0
2017-02-23T05:15:37.340Z,0
2017-02-23T05:16:51.036Z,0
2017-02-23T05:18:04.707Z,0
2017-02-23T05:19:17.770Z,0
2017-02-23T05:20:31.480Z,0
2017-02-23T05:21:44.584Z,0
2017-02-23T05:22:58.301Z,0
2017-02-23T05:24:11.982Z,0
2017-02-23T05:25:25.685Z,0
2017-02-23T05:26:39.413Z,0
2017-02-23T05:27:52.501Z,0
2017-02-23T05:29:06.143Z,0
2017-02-23T05:30:19.876Z,0
2017-02-23T05:31:33.618Z,0
2017-02-23T05:32:47.287Z,0
2017-02-23T05:34:00.986Z,0
2017-02-23T05:35:14.672Z,0
2017-02-23T05:36:28.430Z,0
2017-02-23T05:37:42.102Z,0
2017-02-23T05:38:55.170Z,0
2017-02-23T05:40:08.320Z,0
2017-02-23T05:41:22.014Z,0
2017-02-23T05:42:35.119Z,0
2017-02-23T05:43:48.793Z,0
2017-02-23T05:45:02.544Z,0
2017-02-23T05:46:16.222Z,0
2017-02-23T05:47:29.343Z,0
2017-02-23T05:48:43.049Z,0
2017-02-23T05:49:56.148Z,0
2017-02-23T05:51:09.830Z,0
2017-02-23T05:52:23.549Z,0
2017-02-23T05:53:37.338Z,0
2017-02-23T05:54:51.000Z,0
2017-02-23T05:56:04.735Z,0
2017-02-23T05:57:17.788Z,0
2017-02-23T05:58:31.463Z,0
2017-02-23T05:59:45.143Z,0
2017-02-23T06:00:58.834Z,0
2017-02-23T06:02:12.589Z,0
2017-02-23T06:03:26.337Z,0
2017-02-23T06:04:40.065Z,0
2017-02-23T06:05:53.750Z,0
2017-02-23T06:07:07.447Z,0
2017-02-23T06:08:21.157Z,0
2017-02-23T06:09:34.830Z,0
2017-02-23T06:10:47.909Z,0
2017-02-23T06:12:01.603Z,0
2017-02-23T06:13:15.284Z,0
2017-02-23T06:14:28.964Z,0
2017-02-23T06:15:42.659Z,0
2017-02-23T06:16:56.390Z,0
2017-02-23T06:18:09.459Z,0
2017-02-23T06:19:22.601Z,0
2017-02-23T06:20:36.295Z,0
2017-02-23T06:21:49.999Z,0
2017-02-23T06:23:03.110Z,0
2017-02-23T06:24:16.795Z,0
2017-02-23T06:25:30.488Z,0
2017-02-23T06:26:44.201Z,0
2017-02-23T06:27:57.944Z,0
2017-02-23T06:29:11.659Z,0
2017-02-23T06:30:24.744Z,0
2017-02-23T06:31:38.444Z,0
2017-02-23T06:32:52.138Z,0
2017-02-23T06:34:05.834Z,0
2017-02-23T06:35:19.541Z,0
2017-02-23T06:36:33.242Z,0
2017-02-23T06:37:46.977Z,0
2017-02-23T06:39:00.081Z,0
2017-02-23T06:40:13.779Z,0
2017-02-23T06:41:27.467Z,0
2017-02-23T06:42:41.135Z,0
2017-02-23T06:43:54.808Z,0
2017-02-23T06:45:08.507Z,0
2017-02-23T06:46:21.592Z,0
2017-02-23T06:47:35.278Z,0
2017-02-23T06:48:49.002Z,0
2017-02-23T06:50:02.671Z,0
2017-02-23T06:51:16.368Z,0
2017-02-23T06:52:30.047Z,0
2017-02-23T06:53:43.718Z,0
2017-02-23T06:54:57.396Z,0
2017-02-23T06:56:11.096Z,0
2017-02-23T06:57:24.213Z,0
2017-02-23T06:58:37.937Z,0
2017-02-23T06:59:51.024Z,0
2017-02-23T07:01:04.753Z,0
2017-02-23T07:02:17.860Z,0
2017-02-23T07:03:31.555Z,0
2017-02-23T07:04:45.301Z,0
2017-02-23T07:05:58.404Z,0
2017-02-23T07:07:12.109Z,0
2017-02-23T07:08:25.227Z,0
2017-02-23T07:09:38.927Z,0
2017-02-23T07:10:52.577Z,0
2017-02-23T07:12:05.696Z,0
2017-02-23T07:13:18.823Z,0
2017-02-23T07:14:32.526Z,0
2017-02-23T07:15:46.233Z,0
2017-02-23T07:16:58.749Z,0
2017-02-23T07:18:12.452Z,0
2017-02-23T07:19:26.128Z,0
2017-02-23T07:20:39.809Z,0
2017-02-23T07:21:53.512Z,0
2017-02-23T07:23:07.195Z,0
2017-02-23T07:24:20.914Z,0
2017-02-23T07:25:34.610Z,0
2017-02-23T07:26:48.358Z,0
2017-02-23T07:28:02.069Z,0
2017-02-23T07:29:15.745Z,0
2017-02-23T07:30:29.469Z,0
2017-02-23T07:31:41.975Z,0
2017-02-23T07:32:55.094Z,0
2017-02-23T07:34:08.782Z,0
2017-02-23T07:35:21.861Z,0
2017-02-23T07:36:34.970Z,0
2017-02-23T07:37:48.693Z,0
2017-02-23T07:39:02.420Z,0
2017-02-23T07:40:15.501Z,0
2017-02-23T07:41:29.190Z,0
2017-02-23T07:42:42.331Z,0
2017-02-23T07:43:56.060Z,0
2017-02-23T07:45:09.190Z,0
2017-02-23T07:46:22.290Z,0
2017-02-23T07:47:36.017Z,0
2017-02-23T07:48:49.746Z,0
2017-02-23T07:50:03.418Z,0
2017-02-23T07:51:16.537Z,0
2017-02-23T07:52:30.249Z,0
2017-02-23T07:53:43.920Z,0
2017-02-23T07:54:57.030Z,0
2017-02-23T07:56:10.751Z,0
2017-02-23T07:57:23.853Z,0
2017-02-23T07:58:37.574Z,0
2017-02-23T07:59:51.257Z,0
2017-02-23T08:01:04.919Z,0
2017-02-23T08:02:18.652Z,0
2017-02-23T08:03:32.351Z,0
2017-02-23T08:04:44.843Z,0
2017-02-23T08:05:57.930Z,0
2017-02-23T08:07:11.624Z,0
2017-02-23T08:08:25.284Z,0
2017-02-23T08:09:38.390Z,0
2017-02-23T08:10:52.102Z,0
2017-02-23T08:12:05.811Z,0
2017-02-23T08:13:18.880Z,0
2017-02-23T08:14:32.601Z,0
2017-02-23T08:15:46.279Z,0
2017-02-23T08:16:59.984Z,0
2017-02-23T08:18:13.698Z,0
2017-02-23T08:19:27.404Z,0
2017-02-23T08:20:41.127Z,0
2017-02-23T08:21:53.786Z,0
2017-02-23T08:23:07.502Z,0
2017-02-23T08:24:21.220Z,0
2017-02-23T08:25:34.923Z,0
2017-02-23T08:26:48.055Z,0
2017-02-23T08:28:01.782Z,0
2017-02-23T08:29:14.921Z,0
2017-02-23T08:30:28.627Z,0
2017-02-23T08:31:42.345Z,0
2017-02-23T08:32:56.083Z,4
2017-02-23T08:34:09.799Z,0
2017-02-23T08:35:22.872Z,4
2017-02-23T08:36:36.644Z,4
2017-02-23T08:37:50.367Z,4
2017-02-23T08:39:03.487Z,8
2017-02-23T08:40:17.204Z,12
2017-02-23T08:41:30.335Z,16
2017-02-23T08:42:44.026Z,24
2017-02-23T08:43:57.106Z,32
2017-02-23T08:45:10.834Z,44
2017-02-23T08:46:23.926Z,60
2017-02-23T08:47:36.416Z,80
2017-02-23T08:48:50.090Z,112
2017-02-23T08:50:03.814Z,144
2017-02-23T08:51:16.347Z,188
2017-02-23T08:52:30.037Z,236
2017-02-23T08:53:43.158Z,296
2017-02-23T08:54:56.838Z,364
2017-02-23T08:56:09.956Z,440
2017-02-23T08:57:23.053Z,524
2017-02-23T08:58:36.776Z,624
2017-02-23T08:59:50.484Z,728
2017-02-23T09:01:04.187Z,848
2017-02-23T09:02:17.901Z,972
2017-02-23T09:03:31.617Z,1116
2017-02-23T09:04:45.296Z,1264
2017-02-23T09:05:58.981Z,1436
2017-02-23T09:07:12.663Z,1628
2017-02-23T09:08:26.337Z,1848
2017-02-23T09:09:40.050Z,2076
2017-02-23T09:10:53.721Z,2316
2017-02-23T09:12:07.440Z,2596
2017-02-23T09:13:21.128Z,2860
2017-02-23T09:14:34.886Z,3176
2017-02-23T09:15:48.610Z,3556
2017-02-23T09:17:01.694Z,3840
2017-02-23T09:18:14.768Z,4112
2017-02-23T09:19:28.517Z,4564
2017-02-23T09:20:41.645Z,4920
2017-02-23T09:21:54.193Z,5288
2017-02-23T09:23:07.895Z,5688
2017-02-23T09:24:21.001Z,6136
2017-02-23T09:25:34.699Z,6676
2017-02-23T09:26:47.761Z,7268
2017-02-23T09:28:01.682Z,7604
2017-02-23T09:29:15.369Z,8124
2017-02-23T09:30:29.062Z,8356
2017-02-23T09:31:42.788Z,8820
2017-02-23T09:32:56.540Z,9560
2017-02-23T09:34:10.227Z,9992
2017-02-23T09:35:23.935Z,10504
2017-02-23T09:36:37.059Z,11052
2017-02-23T09:37:50.776Z,11796
2017-02-23T09:39:04.498Z,12236
2017-02-23T09:40:18.180Z,12832
2017-02-23T09:41:31.875Z,13552
2017-02-23T09:42:45.603Z,14112
2017-02-23T09:43:59.286Z,14400
2017-02-23T09:45:12.968Z,15456
2017-02-23T09:46:26.691Z,16448
2017-02-23T09:47:40.378Z,16512
2017-02-23T09:48:54.052Z,16672
2017-02-23T09:50:07.736Z,18080
2017-02-23T09:51:20.872Z,19200
2017-02-23T09:52:34.584Z,19776
2017-02-23T09:53:48.306Z,20736
2017-02-23T09:55:01.967Z,21120
2017-02-23T09:56:15.703Z,21344
2017-02-23T09:57:29.429Z,23040
2017-02-23T09:58:43.177Z,23200
2017-02-23T09:59:56.878Z,24480
2017-02-23T10:01:10.649Z,25216
2017-02-23T10:02:24.355Z,25152
2017-02-23T10:03:38.050Z,26048
2017-02-23T10:04:51.152Z,26944
2017-02-23T10:06:04.851Z,28896
2017-02-23T10:07:18.553Z,29440
2017-02-23T10:08:32.303Z,30336
2017-02-23T10:09:46.024Z,31424
2017-02-23T10:10:59.754Z,32864
2017-02-23T10:12:13.573Z,32864
2017-02-23T10:13:26.730Z,33088
2017-02-23T10:14:40.466Z,34656
2017-02-23T10:15:53.544Z,35104
2017-02-23T10:17:07.245Z,37184
2017-02-23T10:18:20.333Z,37376
2017-02-23T10:19:34.054Z,37504
2017-02-23T10:20:47.158Z,38560
2017-02-23T10:22:00.881Z,39904
2017-02-23T10:23:13.997Z,40832
2017-02-23T10:24:27.701Z,41952
2017-02-23T10:25:41.452Z,42944
2017-02-23T10:26:54.559Z,42912
2017-02-23T10:28:08.274Z,42592
2017-02-23T10:29:21.457Z,44352
2017-02-23T10:30:34.551Z,44576
2017-02-23T10:31:47.641Z,45792
2017-02-23T10:33:01.402Z,46368
2017-02-23T10:34:15.173Z,48032
2017-02-23T10:35:28.860Z,48864
2017-02-23T10:36:42.556Z,49568
2017-02-23T10:37:56.243Z,51872
2017-02-23T10:39:09.957Z,50784
2017-02-23T10:40:23.651Z,51456
2017-02-23T10:41:37.331Z,52224
2017-02-23T10:42:51.065Z,54112
2017-02-23T10:44:04.768Z,54624
2017-02-23T10:45:18.490Z,53216
2017-02-23T10:46:31.587Z,57184
2017-02-23T10:47:44.742Z,55808
2017-02-23T10:48:58.474Z,57760
2017-02-23T10:50:12.177Z,58496
2017-02-23T10:51:25.308Z,58848
2017-02-23T10:52:38.995Z,60640
2017-02-23T10:53:52.701Z,59872
2017-02-23T10:55:05.889Z,59840
2017-02-23T10:56:18.430Z,62080
2017-02-23T10:57:31.547Z,64000
2017-02-23T10:58:44.059Z,59424
2017-02-23T10:59:57.764Z,63104
2017-02-23T11:01:11.464Z,62368
2017-02-23T11:02:23.969Z,63616
2017-02-23T11:03:37.653Z,63456
2017-02-23T11:04:51.386Z,62432
2017-02-23T11:06:04.516Z,66240
2017-02-23T11:07:16.448Z,68160
2017-02-23T11:08:30.180Z,66752
2017-02-23T11:09:43.930Z,70208
2017-02-23T11:10:57.640Z,69440
2017-02-23T11:12:11.351Z,69536
2017-02-23T11:13:24.491Z,63904
2017-02-23T11:14:38.259Z,66496
2017-02-23T11:15:51.950Z,62272
2017-02-23T11:17:05.647Z,62720
2017-02-23T11:18:19.384Z,67392
2017-02-23T11:19:33.137Z,70752
2017-02-23T11:20:46.842Z,73344
2017-02-23T11:22:00.545Z,70784
2017-02-23T11:23:14.259Z,69216
2017-02-23T11:24:27.392Z,69088
2017-02-23T11:25:41.112Z,71456
2017-02-23T11:26:54.860Z,78752
2017-02-23T11:28:07.970Z,77248
2017-02-23T11:29:21.161Z,73792
2017-02-23T11:30:34.260Z,76096
2017-02-23T11:31:47.347Z,77440
2017-02-23T11:33:01.064Z,75712
2017-02-23T11:34:14.759Z,80800
2017-02-23T11:35:28.463Z,85568
2017-02-23T11:36:42.165Z,80736
2017-02-23T11:37:55.869Z,73696
2017-02-23T11:39:09.605Z,71744
2017-02-23T11:40:22.130Z,73504
2017-02-23T11:41:35.840Z,73664
2017-02-23T11:42:49.544Z,86144
2017-02-23T11:44:03.241Z,87904
2017-02-23T11:45:16.950Z,78208
2017-02-23T11:46:30.689Z,73728
2017-02-23T11:47:44.425Z,72000
2017-02-23T11:48:57.546Z,72448
2017-02-23T11:50:10.669Z,78688
2017-02-23T11:51:23.760Z,64640
2017-02-23T11:52:36.873Z,50976
2017-02-23T11:53:50.613Z,48224
2017-02-23T11:55:04.331Z,48416
2017-02-23T11:56:17.460Z,48448
2017-02-23T11:57:31.161Z,58848
2017-02-23T11:58:44.912Z,66304
2017-02-23T11:59:58.668Z,62176
2017-02-23T12:01:12.341Z,70720
2017-02-23T12:02:26.157Z,70208
2017-02-23T12:03:39.850Z,74048
2017-02-23T12:04:52.945Z,83200
2017-02-23T12:06:06.676Z,91488
2017-02-23T12:07:20.368Z,95200
2017-02-23T12:08:33.453Z,94784
2017-02-23T12:09:47.153Z,99072
2017-02-23T12:11:00.879Z,80736
2017-02-23T12:12:13.999Z,96800
2017-02-23T12:13:27.698Z,94080
2017-02-23T12:14:41.414Z,110848
2017-02-23T12:15:54.562Z,119264
2017-02-23T12:17:08.357Z,109088
2017-02-23T12:18:20.910Z,113440
2017-02-23T12:19:34.637Z,122528
2017-02-23T12:20:47.739Z,115136
2017-02-23T12:22:00.819Z,114144
2017-02-23T12:23:13.940Z,108096
2017-02-23T12:24:27.615Z,106592
2017-02-23T12:25:41.341Z,106208
2017-02-23T12:26:55.048Z,97728
2017-02-23T12:28:08.789Z,84832
2017-02-23T12:29:22.508Z,75264
2017-02-23T12:30:36.250Z,85472
2017-02-23T12:31:49.985Z,86688
2017-02-23T12:33:03.731Z,74016
2017-02-23T12:34:17.499Z,81888
2017-02-23T12:35:31.238Z,93088
2017-02-23T12:36:45.003Z,95296
2017-02-23T12:37:58.131Z,99328
2017-02-23T12:39:11.830Z,96032
2017-02-23T12:40:24.933Z,82912
2017-02-23T12:41:38.655Z,83936
2017-02-23T12:42:52.412Z,99360
2017-02-23T12:44:06.215Z,104704
2017-02-23T12:45:20.176Z,96064
2017-02-23T12:46:33.958Z,100256
2017-02-23T12:47:47.650Z,103968
2017-02-23T12:49:00.806Z,104640
2017-02-23T12:50:32.288Z,102208
2017-02-23T12:51:46.188Z,103808
2017-02-23T12:52:59.902Z,102368
2017-02-23T12:54:13.641Z,99840
2017-02-23T12:55:27.361Z,102080
2017-02-23T12:56:41.114Z,107424
2017-02-23T12:57:54.814Z,105440
2017-02-23T12:59:08.551Z,104160
2017-02-23T13:00:21.050Z,102688
2017-02-23T13:01:34.803Z,104960
2017-02-23T13:02:48.502Z,102880
2017-02-23T13:04:02.202Z,97120
2017-02-23T13:05:15.329Z,106592
2017-02-23T13:06:29.008Z,111104
2017-02-23T13:07:42.750Z,100736
2017-02-23T13:08:56.434Z,105376
2017-02-23T13:10:10.162Z,109696
2017-02-23T13:11:23.875Z,109536
2017-02-23T13:12:37.641Z,111488
2017-02-23T13:13:50.749Z,107360
2017-02-23T13:15:04.464Z,111712
2017-02-23T13:16:17.651Z,114432
2017-02-23T13:17:31.354Z,114624
2017-02-23T13:18:44.487Z,113504
2017-02-23T13:19:58.334Z,118752
2017-02-23T13:21:12.047Z,107520
2017-02-23T13:22:25.176Z,96352
2017-02-23T13:23:38.875Z,111360
2017-02-23T13:24:52.038Z,115904
2017-02-23T13:26:05.788Z,115616
2017-02-23T13:27:17.740Z,116576
2017-02-23T13:28:31.499Z,116576
2017-02-23T13:29:45.202Z,116736
2017-02-23T13:30:58.940Z,111904
2017-02-23T13:32:12.619Z,107776
2017-02-23T13:33:26.331Z,110400
2017-02-23T13:34:39.463Z,113216
2017-02-23T13:35:53.056Z,112160
2017-02-23T13:37:08.670Z,116480
2017-02-23T13:38:22.452Z,119840
2017-02-23T13:39:36.867Z,118208
2017-02-23T13:40:50.655Z,120864
2017-02-23T13:42:05.064Z,120384
2017-02-23T13:43:18.174Z,117376
2017-02-23T13:44:32.594Z,120704
2017-02-23T13:45:47.028Z,121312
2017-02-23T13:47:58.021Z,118688
2017-02-23T13:49:12.423Z,122208
2017-02-23T13:50:25.521Z,122176
2017-02-23T13:51:39.263Z,118464
2017-02-23T13:52:54.063Z,124064
2017-02-23T13:54:08.675Z,129440
2017-02-23T13:55:22.373Z,130464
2017-02-23T13:56:36.080Z,127328
2017-02-23T13:57:50.446Z,134528
2017-02-23T13:59:04.850Z,134560
2017-02-23T14:00:17.985Z,129760
2017-02-23T14:01:44.440Z,124896
2017-02-23T14:02:58.796Z,119904
2017-02-23T14:04:13.175Z,128032
2017-02-23T14:05:27.557Z,128448
2017-02-23T14:06:41.316Z,126912
2017-02-23T14:07:55.744Z,130816
2017-02-23T14:09:10.179Z,130560
2017-02-23T14:10:24.553Z,130688
2017-02-23T14:11:38.968Z,130592
2017-02-23T14:12:53.422Z,126176
2017-02-23T14:14:07.844Z,123968
2017-02-23T14:15:21.678Z,123232
2017-02-23T14:16:36.292Z,126592
2017-02-23T14:17:50.731Z,134624
2017-02-23T14:19:05.128Z,134144
2017-02-23T14:20:19.554Z,138752
2017-02-23T14:21:33.980Z,133440
2017-02-23T14:22:48.401Z,135840
2017-02-23T14:24:02.792Z,137088
2017-02-23T14:25:17.204Z,137568
2017-02-23T14:26:31.649Z,131648
2017-02-23T14:27:46.048Z,128096
2017-02-23T14:29:00.484Z,59840
2017-02-23T14:30:14.920Z,126944
2017-02-23T14:31:29.371Z,135680
2017-02-23T14:32:44.132Z,128352
2017-02-23T14:33:57.946Z,125760
2017-02-23T14:35:12.002Z,145120
2017-02-23T14:36:25.984Z,133696
2017-02-23T14:37:40.698Z,123200
2017-02-23T14:38:55.234Z,133440
2017-02-23T14:40:09.752Z,142272
2017-02-23T14:41:24.319Z,134656
2017-02-23T14:42:39.010Z,121856
2017-02-23T14:43:53.820Z,124064
2017-02-23T14:45:07.823Z,131264
2017-02-23T14:46:21.302Z,139968
2017-02-23T14:47:36.225Z,140544
2017-02-23T14:48:50.869Z,137952
2017-02-23T14:50:04.870Z,145248
2017-02-23T14:51:19.513Z,42112
2017-02-23T14:52:34.306Z,116640
2017-02-23T14:53:48.208Z,38848
2017-02-23T14:55:02.150Z,37792
2017-02-23T14:56:16.133Z,34336
2017-02-23T14:57:30.640Z,33984
2017-02-23T14:58:45.230Z,149792
2017-02-23T14:59:59.805Z,146208
2017-02-23T15:01:13.773Z,109568
2017-02-23T15:02:28.264Z,42240
2017-02-23T15:03:42.760Z,128160
2017-02-23T15:04:57.418Z,96512
2017-02-23T15:06:12.004Z,94752
2017-02-23T15:07:25.813Z,42080
2017-02-23T15:08:43.532Z,40704
2017-02-23T15:09:58.082Z,39264
2017-02-23T15:11:12.609Z,38752
2017-02-23T15:12:26.492Z,41024
2017-02-23T15:13:40.479Z,45952
2017-02-23T15:14:55.057Z,147776
2017-02-23T15:16:09.646Z,130912
2017-02-23T15:17:24.165Z,108928
2017-02-23T15:18:38.173Z,47488
2017-02-23T15:19:52.771Z,49632
2017-02-23T15:21:07.424Z,129824
2017-02-23T15:22:20.669Z,81376
2017-02-23T15:23:35.283Z,36256
2017-02-23T15:24:49.933Z,144256
2017-02-23T15:26:04.415Z,143072
2017-02-23T15:27:19.112Z,142688
2017-02-23T15:28:33.766Z,143072
2017-02-23T15:29:48.461Z,147264
2017-02-23T15:31:02.511Z,147040
2017-02-23T15:32:15.846Z,145600
2017-02-23T15:33:30.680Z,144768
2017-02-23T15:34:45.269Z,141600
2017-02-23T15:35:59.912Z,135552
2017-02-23T15:37:14.536Z,132544
2017-02-23T15:38:28.371Z,134816
2017-02-23T15:44:03.451Z,135680
2017-02-23T15:45:16.579Z,135296
2017-02-23T15:46:30.861Z,128384
2017-02-23T15:47:44.979Z,118976
2017-02-23T15:48:58.539Z,117824
2017-02-23T15:50:12.064Z,120704
2017-02-23T15:51:26.344Z,125632
2017-02-23T15:52:40.488Z,129856
2017-02-23T15:53:54.620Z,128352
2017-02-23T15:55:08.634Z,128224
2017-02-23T15:56:23.451Z,136288
2017-02-23T15:57:38.627Z,138912
2017-02-23T15:58:53.936Z,136096
2017-02-23T16:00:08.619Z,137440
2017-02-23T16:01:22.511Z,135040
2017-02-23T16:02:36.535Z,134048
2017-02-23T16:03:50.614Z,135456
2017-02-23T16:05:05.492Z,134144
2017-02-23T16:06:20.232Z,135200
2017-02-23T16:07:34.803Z,136832
2017-02-23T16:08:49.547Z,132896
2017-02-23T16:10:04.126Z,132896
2017-02-23T16:11:18.883Z,131904
2017-02-23T16:12:32.764Z,127680
2017-02-23T16:13:47.765Z,117664
2017-02-23T16:15:02.549Z,126720
2017-02-23T16:16:16.497Z,142080
2017-02-23T16:17:31.387Z,137920
2017-02-23T16:18:45.546Z,134592
2017-02-23T16:20:00.197Z,130464
2017-02-23T16:21:14.863Z,130368
2017-02-23T16:22:27.641Z,131328
2017-02-23T16:23:42.347Z,132864
2017-02-23T16:24:57.001Z,130592
2017-02-23T16:26:11.586Z,131616
2017-02-23T16:27:26.287Z,118016
2017-02-23T16:28:40.811Z,122528
2017-02-23T16:29:55.512Z,132768
2017-02-23T16:31:10.117Z,99776
2017-02-23T16:32:24.729Z,30400
2017-02-23T16:33:38.811Z,112128
2017-02-23T16:34:52.743Z,30752
2017-02-23T16:36:07.150Z,53952
2017-02-23T16:37:21.887Z,105056
2017-02-23T16:38:36.483Z,75616
2017-02-23T16:39:51.144Z,109216
2017-02-23T16:41:05.629Z,101696
2017-02-23T16:42:20.094Z,105472
2017-02-23T16:43:34.586Z,122848
2017-02-23T16:44:49.107Z,124640
2017-02-23T16:46:03.827Z,20224
2017-02-23T16:47:17.838Z,18564
2017-02-23T16:48:32.696Z,19552
2017-02-23T16:49:47.261Z,22464
2017-02-23T16:51:01.838Z,28256
2017-02-23T16:52:15.866Z,130432
2017-02-23T16:53:30.538Z,56928
2017-02-23T16:54:45.175Z,110624
2017-02-23T16:56:01.428Z,115648
2017-02-23T16:57:15.355Z,115424